createdAt,value
2019-03-24T00:04:06.225Z,79.07
2019-03-24T00:06:35.685Z,79.36
2019-03-24T00:09:06.818Z,79.32
2019-03-24T00:11:36.275Z,79.24
2019-03-24T00:14:08.705Z,78.96
2019-03-24T00:16:38.177Z,78.57
2019-03-24T00:19:07.634Z,78.60
2019-03-24T00:21:37.102Z,78.47
2019-03-24T00:24:06.588Z,78.23
2019-03-24T00:26:36.141Z,78.05
2019-03-24T00:29:05.607Z,78.12
2019-03-24T00:31:35.419Z,77.96
2019-03-24T00:34:04.909Z,77.80
2019-03-24T00:36:34.366Z,77.61
2019-03-24T00:39:05.112Z,77.29
2019-03-24T00:41:34.946Z,77.45
2019-03-24T00:44:04.407Z,77.50
2019-03-24T00:46:33.874Z,77.33
2019-03-24T00:49:03.795Z,77.43
2019-03-24T00:51:33.302Z,77.25
2019-03-24T00:54:02.721Z,77.55
2019-03-24T00:56:32.174Z,77.34
2019-03-24T00:59:01.651Z,77.45
2019-03-24T01:01:31.106Z,77.00
2019-03-24T01:04:00.715Z,76.68
2019-03-24T01:06:30.198Z,76.60
2019-03-24T01:08:59.669Z,76.35
2019-03-24T01:11:29.157Z,76.15
2019-03-24T01:13:59.455Z,76.09
2019-03-24T01:16:31.478Z,75.81
2019-03-24T01:19:01.841Z,75.81
2019-03-24T01:21:31.320Z,75.79
2019-03-24T01:24:01.071Z,75.72
2019-03-24T01:26:30.886Z,75.82
2019-03-24T01:29:00.337Z,76.19
2019-03-24T01:31:29.826Z,75.89
2019-03-24T01:33:59.285Z,76.18
2019-03-24T01:36:29.008Z,76.00
2019-03-24T01:38:58.630Z,75.88
2019-03-24T01:41:28.106Z,76.16
2019-03-24T01:43:57.564Z,76.32
2019-03-24T01:46:27.193Z,76.14
2019-03-24T01:48:56.952Z,76.06
2019-03-24T01:51:26.432Z,76.15
2019-03-24T01:53:55.895Z,76.56
2019-03-24T01:56:25.350Z,76.56
2019-03-24T01:58:54.908Z,76.94
2019-03-24T02:01:24.385Z,77.08
2019-03-24T02:03:54.118Z,76.86
2019-03-24T02:06:23.795Z,76.68
2019-03-24T02:08:53.437Z,76.66
2019-03-24T02:11:23.347Z,76.67
2019-03-24T02:13:53.339Z,76.83
2019-03-24T02:16:23.257Z,76.58
2019-03-24T02:18:53.276Z,76.74
2019-03-24T02:21:23.292Z,76.64
2019-03-24T02:23:53.105Z,76.68
2019-03-24T02:26:22.738Z,76.81
2019-03-24T02:28:52.475Z,76.98
2019-03-24T02:31:22.213Z,76.98
2019-03-24T02:33:51.693Z,77.20
2019-03-24T02:36:21.561Z,77.21
2019-03-24T02:38:51.386Z,77.27
2019-03-24T02:41:21.203Z,77.37
2019-03-24T02:43:50.651Z,77.19
2019-03-24T02:46:24.556Z,77.10
2019-03-24T02:48:51.570Z,77.31
2019-03-24T02:51:21.044Z,77.48
2019-03-24T02:53:50.629Z,77.36
2019-03-24T02:56:20.100Z,77.33
2019-03-24T02:58:49.550Z,77.68
2019-03-24T03:01:19.031Z,77.81
2019-03-24T03:03:48.481Z,77.99
2019-03-24T03:06:17.941Z,78.15
2019-03-24T03:08:47.589Z,78.43
2019-03-24T03:11:18.435Z,78.32
2019-03-24T03:13:47.907Z,78.35
2019-03-24T03:16:17.370Z,78.54
2019-03-24T03:18:46.841Z,78.57
2019-03-24T03:21:16.326Z,78.53
2019-03-24T03:23:45.824Z,78.64
2019-03-24T03:26:15.278Z,79.09
2019-03-24T03:28:44.733Z,79.09
2019-03-24T03:31:14.224Z,79.18
2019-03-24T03:33:43.690Z,79.53
2019-03-24T03:36:13.497Z,79.79
2019-03-24T03:38:42.961Z,79.79
2019-03-24T03:41:12.497Z,79.94
2019-03-24T03:43:41.942Z,79.53
2019-03-24T03:46:11.406Z,79.70
2019-03-24T03:48:41.245Z,79.57
2019-03-24T03:51:10.726Z,79.68
2019-03-24T03:53:40.571Z,79.90
2019-03-24T03:56:10.319Z,79.77
2019-03-24T03:58:39.796Z,79.97
2019-03-24T04:01:09.282Z,80.02
2019-03-24T04:03:39.401Z,80.26
2019-03-24T04:06:08.859Z,79.86
2019-03-24T04:08:38.338Z,79.75
2019-03-24T04:11:07.982Z,79.90
2019-03-24T04:13:37.442Z,79.92
2019-03-24T04:16:06.941Z,79.82
2019-03-24T04:18:47.819Z,79.94
2019-03-24T04:21:39.103Z,80.10
2019-03-24T04:24:21.076Z,80.59
2019-03-24T04:27:02.886Z,80.77
2019-03-24T04:29:43.849Z,80.51
2019-03-24T04:32:26.217Z,80.52
2019-03-24T04:35:08.108Z,80.73
2019-03-24T04:38:00.906Z,80.42
2019-03-24T04:40:33.163Z,80.22
2019-03-24T04:43:02.894Z,79.87
2019-03-24T04:45:32.512Z,79.50
2019-03-24T04:48:01.979Z,79.50
2019-03-24T04:50:31.561Z,79.58
2019-03-24T04:53:01.193Z,79.52
2019-03-24T04:55:30.720Z,79.54
2019-03-24T04:58:00.564Z,79.30
2019-03-24T05:00:37.759Z,79.35
2019-03-24T05:03:07.216Z,79.18
2019-03-24T05:05:37.388Z,79.10
2019-03-24T05:08:07.511Z,79.32
2019-03-24T05:10:36.957Z,79.35
2019-03-24T05:13:06.417Z,79.62
2019-03-24T05:15:35.863Z,79.51
2019-03-24T05:18:05.325Z,79.41
2019-03-24T05:20:34.784Z,79.55
2019-03-24T05:23:04.258Z,79.73
2019-03-24T05:25:33.721Z,79.39
2019-03-24T05:28:03.546Z,79.42
2019-03-24T05:30:33.005Z,79.59
2019-03-24T05:33:02.458Z,79.55
2019-03-24T05:35:31.911Z,79.54
2019-03-24T05:38:01.418Z,79.11
2019-03-24T05:40:30.863Z,78.53
2019-03-24T05:43:00.331Z,78.00
2019-03-24T05:45:29.789Z,78.30
2019-03-24T05:47:59.596Z,78.41
2019-03-24T05:50:29.049Z,77.93
2019-03-24T05:52:58.519Z,77.88
2019-03-24T05:55:28.216Z,78.29
2019-03-24T05:57:58.030Z,78.62
2019-03-24T06:00:27.489Z,78.52
2019-03-24T06:02:57.394Z,78.51
2019-03-24T06:05:26.831Z,78.26
2019-03-24T06:07:56.299Z,78.16
2019-03-24T06:10:25.790Z,77.76
2019-03-24T06:12:55.618Z,77.83
2019-03-24T06:15:25.082Z,78.36
2019-03-24T06:17:54.620Z,78.35
2019-03-24T06:20:24.084Z,78.05
2019-03-24T06:22:53.543Z,77.89
2019-03-24T06:25:23.018Z,77.68
2019-03-24T06:27:52.481Z,77.23
2019-03-24T06:30:22.812Z,77.20
2019-03-24T06:32:52.277Z,77.40
2019-03-24T06:35:21.828Z,76.72
2019-03-24T06:37:51.277Z,76.70
2019-03-24T06:40:20.732Z,76.45
2019-03-24T06:42:50.215Z,76.17
2019-03-24T06:45:27.915Z,75.90
2019-03-24T06:47:57.955Z,75.44
2019-03-24T06:50:21.982Z,75.60
2019-03-24T06:52:51.770Z,75.03
2019-03-24T06:55:21.582Z,74.49
2019-03-24T06:57:51.060Z,74.54
2019-03-24T07:00:20.595Z,73.84
2019-03-24T07:02:50.064Z,73.33
2019-03-24T07:05:19.544Z,73.53
2019-03-24T07:07:49.015Z,73.36
2019-03-24T07:10:18.474Z,72.61
2019-03-24T07:12:48.003Z,71.92
2019-03-24T07:15:17.458Z,71.12
2019-03-24T07:17:46.927Z,71.12
2019-03-24T07:20:16.774Z,70.52
2019-03-24T07:22:46.257Z,70.54
2019-03-24T07:25:15.700Z,70.80
2019-03-24T07:27:45.207Z,69.16
2019-03-24T07:30:14.847Z,69.10
2019-03-24T07:32:44.587Z,69.10
2019-03-24T07:35:14.044Z,68.50
2019-03-24T07:37:43.507Z,68.44
2019-03-24T07:40:13.308Z,69.01
2019-03-24T07:42:43.124Z,69.24
2019-03-24T07:45:12.911Z,68.93
2019-03-24T07:47:42.381Z,68.42
2019-03-24T07:50:12.456Z,68.43
2019-03-24T07:52:41.926Z,67.18
2019-03-24T07:55:11.524Z,67.62
2019-03-24T07:57:40.988Z,67.43
2019-03-24T08:00:11.497Z,67.47
2019-03-24T08:02:50.992Z,67.18
2019-03-24T08:05:15.471Z,66.67
2019-03-24T08:07:44.944Z,67.56
2019-03-24T08:10:14.455Z,65.88
2019-03-24T08:12:43.950Z,65.57
2019-03-24T08:15:23.821Z,65.56
2019-03-24T08:18:11.460Z,65.59
2019-03-24T08:20:43.900Z,64.65
2019-03-24T08:23:13.599Z,65.75
2019-03-24T08:25:43.421Z,65.92
2019-03-24T08:28:13.246Z,65.61
2019-03-24T08:30:42.714Z,64.11
2019-03-24T08:33:12.245Z,63.53
2019-03-24T08:35:41.695Z,64.51
2019-03-24T08:38:11.194Z,64.67
2019-03-24T08:40:40.695Z,64.06
2019-03-24T08:43:10.164Z,64.18
2019-03-24T08:45:39.628Z,64.56
2019-03-24T08:48:09.103Z,64.74
2019-03-24T08:50:38.555Z,64.98
2019-03-24T08:53:08.025Z,65.10
2019-03-24T08:55:37.481Z,65.26
2019-03-24T08:58:07.226Z,65.20
2019-03-24T09:00:36.756Z,64.28
2019-03-24T09:03:06.274Z,64.23
2019-03-24T09:05:35.737Z,65.13
2019-03-24T09:08:05.197Z,63.91
2019-03-24T09:10:34.735Z,62.77
2019-03-24T09:13:04.207Z,63.19
2019-03-24T09:15:33.731Z,63.19
2019-03-24T09:18:03.190Z,62.82
2019-03-24T09:20:41.314Z,61.34
2019-03-24T09:23:03.981Z,62.76
2019-03-24T09:25:33.477Z,61.23
2019-03-24T09:28:02.992Z,61.79
2019-03-24T09:30:36.585Z,61.21
2019-03-24T09:33:06.371Z,60.51
2019-03-24T09:35:35.913Z,59.88
2019-03-24T09:38:05.460Z,60.27
2019-03-24T09:40:35.835Z,59.25
2019-03-24T09:43:05.886Z,59.22
2019-03-24T09:45:35.339Z,59.62
2019-03-24T09:48:05.267Z,59.24
2019-03-24T09:50:35.080Z,57.24
2019-03-24T09:53:06.846Z,56.54
2019-03-24T09:55:38.525Z,56.87
2019-03-24T09:58:11.684Z,56.48
2019-03-24T10:00:47.616Z,56.48
2019-03-24T10:03:15.985Z,57.62
2019-03-24T10:05:47.297Z,55.78
2019-03-24T10:08:21.913Z,55.02
2019-03-24T10:10:51.585Z,54.70
2019-03-24T10:13:21.045Z,55.74
2019-03-24T10:15:50.514Z,55.66
2019-03-24T10:18:19.981Z,53.92
2019-03-24T10:20:49.454Z,53.77
2019-03-24T10:23:18.920Z,55.63
2019-03-24T10:25:48.407Z,54.33
2019-03-24T10:28:18.232Z,53.75
2019-03-24T10:30:47.766Z,53.18
2019-03-24T10:33:17.213Z,52.81
2019-03-24T10:35:46.683Z,53.98
2019-03-24T10:38:16.143Z,52.53
2019-03-24T10:40:45.612Z,53.77
2019-03-24T10:43:15.089Z,53.08
2019-03-24T10:45:44.572Z,51.76
2019-03-24T10:48:14.384Z,51.62
2019-03-24T10:50:43.862Z,51.77
2019-03-24T10:53:13.310Z,52.23
2019-03-24T10:55:43.104Z,53.06
2019-03-24T10:58:12.631Z,52.05
2019-03-24T11:00:43.130Z,52.05
2019-03-24T11:03:12.944Z,52.26
2019-03-24T11:05:42.429Z,52.04
2019-03-24T11:08:11.894Z,53.00
2019-03-24T11:10:41.373Z,52.80
2019-03-24T11:13:10.838Z,51.95
2019-03-24T11:15:40.314Z,50.10
2019-03-24T11:18:09.790Z,49.06
2019-03-24T11:20:39.599Z,47.49
2019-03-24T11:23:09.399Z,48.40
2019-03-24T11:25:38.884Z,48.04
2019-03-24T11:28:08.337Z,48.44
2019-03-24T11:30:37.842Z,48.44
2019-03-24T11:33:07.401Z,48.53
2019-03-24T11:35:36.861Z,48.69
2019-03-24T11:38:06.325Z,49.35
2019-03-24T11:40:35.866Z,49.35
2019-03-24T11:43:05.417Z,47.43
2019-03-24T11:45:35.125Z,46.39
2019-03-24T11:48:04.606Z,45.33
2019-03-24T11:50:34.091Z,45.73
2019-03-24T11:53:03.618Z,45.73
2019-03-24T11:55:33.085Z,46.00
2019-03-24T11:58:06.135Z,46.77
2019-03-24T12:00:36.309Z,45.66
2019-03-24T12:03:05.780Z,45.66
2019-03-24T12:05:35.250Z,45.75
2019-03-24T12:08:05.153Z,46.20
2019-03-24T12:10:34.784Z,47.29
2019-03-24T12:13:04.246Z,48.12
2019-03-24T12:15:33.792Z,48.12
2019-03-24T12:18:03.561Z,48.84
2019-03-24T12:20:33.233Z,50.26
2019-03-24T12:23:02.695Z,50.57
2019-03-24T12:25:32.198Z,51.00
2019-03-24T12:28:01.660Z,51.00
2019-03-24T12:30:31.413Z,50.31
2019-03-24T12:33:00.870Z,51.53
2019-03-24T12:35:30.367Z,51.87
2019-03-24T12:37:59.834Z,51.44
2019-03-24T12:40:29.303Z,52.92
2019-03-24T12:42:58.782Z,52.91
2019-03-24T12:45:28.244Z,53.02
2019-03-24T12:47:57.893Z,53.00
2019-03-24T12:50:31.689Z,52.84
2019-03-24T12:52:58.991Z,53.63
2019-03-24T12:55:28.518Z,53.17
2019-03-24T12:57:58.057Z,53.02
2019-03-24T13:00:38.150Z,52.25
2019-03-24T13:03:07.822Z,52.99
2019-03-24T13:05:37.337Z,52.25
2019-03-24T13:08:15.207Z,53.13
2019-03-24T13:10:45.505Z,53.13
2019-03-24T13:13:14.958Z,52.87
2019-03-24T13:15:45.021Z,52.35
2019-03-24T13:18:14.498Z,52.98
2019-03-24T13:20:44.229Z,53.68
2019-03-24T13:23:13.718Z,53.44
2019-03-24T13:25:43.188Z,53.03
2019-03-24T13:28:12.754Z,53.47
2019-03-24T13:30:42.472Z,54.10
2019-03-24T13:33:11.938Z,55.20
2019-03-24T13:35:41.565Z,54.93
2019-03-24T13:38:11.060Z,55.77
2019-03-24T13:40:40.518Z,55.05
2019-03-24T13:43:10.036Z,54.49
2019-03-24T13:45:39.578Z,55.36
2019-03-24T13:48:09.047Z,53.94
2019-03-24T13:50:38.504Z,53.55
2019-03-24T13:53:08.442Z,54.18
2019-03-24T13:55:37.894Z,54.82
2019-03-24T13:58:08.241Z,53.60
2019-03-24T14:00:37.716Z,53.59
2019-03-24T14:03:07.186Z,53.39
2019-03-24T14:05:36.658Z,53.84
2019-03-24T14:08:06.131Z,53.41
2019-03-24T14:10:35.902Z,53.78
2019-03-24T14:13:05.379Z,53.25
2019-03-24T14:15:34.852Z,52.75
2019-03-24T14:18:04.631Z,54.16
2019-03-24T14:20:42.766Z,54.29
2019-03-24T14:23:05.270Z,53.65
2019-03-24T14:25:34.815Z,53.97
2019-03-24T14:28:04.297Z,54.07
2019-03-24T14:30:45.607Z,54.10
2019-03-24T14:33:15.167Z,55.12
2019-03-24T14:35:44.633Z,54.50
2019-03-24T14:38:14.119Z,54.91
2019-03-24T14:40:43.746Z,55.75
2019-03-24T14:43:13.622Z,55.73
2019-03-24T14:45:43.105Z,56.56
2019-03-24T14:48:12.600Z,55.30
2019-03-24T14:50:42.078Z,54.85
2019-03-24T14:53:11.612Z,55.80
2019-03-24T14:55:41.060Z,54.43
2019-03-24T14:58:10.527Z,54.89
2019-03-24T15:00:44.070Z,55.14
2019-03-24T15:03:13.603Z,55.73
2019-03-24T15:05:43.564Z,54.94
2019-03-24T15:08:13.116Z,55.36
2019-03-24T15:10:42.566Z,55.52
2019-03-24T15:13:13.419Z,55.38
2019-03-24T15:15:42.888Z,55.76
2019-03-24T15:18:12.392Z,56.59
2019-03-24T15:20:41.859Z,56.50
2019-03-24T15:23:11.357Z,56.77
2019-03-24T15:25:41.993Z,56.47
2019-03-24T15:28:11.550Z,56.41
2019-03-24T15:30:41.327Z,56.49
2019-03-24T15:33:10.850Z,56.13
2019-03-24T15:35:40.302Z,57.20
2019-03-24T15:38:09.862Z,56.60
2019-03-24T15:40:39.319Z,57.26
2019-03-24T15:43:08.887Z,56.55
2019-03-24T15:45:38.339Z,56.80
2019-03-24T15:48:07.815Z,56.67
2019-03-24T15:50:37.291Z,56.77
2019-03-24T15:53:06.758Z,56.77
2019-03-24T15:55:36.221Z,57.34
2019-03-24T15:58:05.956Z,56.78
2019-03-24T16:00:46.142Z,56.34
2019-03-24T16:03:15.636Z,56.45
2019-03-24T16:05:45.444Z,56.86
2019-03-24T16:08:15.234Z,56.59
2019-03-24T16:10:44.760Z,56.85
2019-03-24T16:13:14.480Z,56.75
2019-03-24T16:15:43.960Z,57.04
2019-03-24T16:18:13.401Z,56.40
2019-03-24T16:20:42.872Z,56.37
2019-03-24T16:23:12.375Z,56.79
2019-03-24T16:25:41.843Z,57.14
2019-03-24T16:28:11.337Z,57.88
2019-03-24T16:30:40.805Z,58.76
2019-03-24T16:33:16.436Z,58.57
2019-03-24T16:35:50.577Z,58.84
2019-03-24T16:38:27.424Z,58.76
2019-03-24T16:40:56.913Z,58.90
2019-03-24T16:43:26.835Z,58.33
2019-03-24T16:45:56.389Z,59.16
2019-03-24T16:48:36.195Z,58.81
2019-03-24T16:50:57.115Z,60.06
2019-03-24T16:53:26.613Z,59.93
2019-03-24T16:55:56.079Z,60.12
2019-03-24T16:58:25.744Z,60.42
2019-03-24T17:00:55.238Z,60.66
2019-03-24T17:03:24.733Z,60.51
2019-03-24T17:05:54.198Z,60.96
2019-03-24T17:08:23.677Z,61.56
2019-03-24T17:10:53.179Z,60.74
2019-03-24T17:13:22.686Z,60.80
2019-03-24T17:15:52.206Z,61.33
2019-03-24T17:18:21.694Z,62.30
2019-03-24T17:20:51.182Z,62.18
2019-03-24T17:23:20.656Z,62.12
2019-03-24T17:25:50.197Z,61.90
2019-03-24T17:28:20.036Z,61.39
2019-03-24T17:30:49.731Z,61.88
2019-03-24T17:33:19.225Z,62.52
2019-03-24T17:35:48.708Z,62.27
2019-03-24T17:38:18.184Z,62.69
2019-03-24T17:40:47.639Z,63.27
2019-03-24T17:43:17.374Z,64.02
2019-03-24T17:45:46.847Z,63.66
2019-03-24T17:48:16.369Z,64.15
2019-03-24T17:50:45.873Z,64.27
2019-03-24T17:53:15.344Z,65.02
2019-03-24T17:55:44.796Z,65.15
2019-03-24T17:58:14.269Z,65.82
2019-03-24T18:00:46.623Z,66.55
2019-03-24T18:03:16.117Z,66.65
2019-03-24T18:05:45.731Z,66.90
2019-03-24T18:08:15.224Z,67.16
2019-03-24T18:10:44.680Z,68.09
2019-03-24T18:13:14.315Z,68.78
2019-03-24T18:15:43.789Z,69.41
2019-03-24T18:18:13.274Z,70.44
2019-03-24T18:20:43.128Z,70.81
2019-03-24T18:23:13.607Z,72.01
2019-03-24T18:25:43.113Z,72.27
2019-03-24T18:28:12.994Z,73.10
2019-03-24T18:30:42.542Z,73.53
2019-03-24T18:33:12.032Z,74.10
2019-03-24T18:35:41.499Z,74.54
2019-03-24T18:38:11.037Z,74.69
2019-03-24T18:40:40.774Z,75.27
2019-03-24T18:43:10.227Z,75.44
2019-03-24T18:45:39.692Z,75.97
2019-03-24T18:48:09.650Z,76.46
2019-03-24T18:50:39.129Z,76.96
2019-03-24T18:53:12.726Z,77.52
2019-03-24T18:55:42.191Z,77.75
2019-03-24T18:58:11.671Z,77.73
2019-03-24T19:00:41.210Z,77.46
2019-03-24T19:03:10.666Z,77.18
2019-03-24T19:05:40.247Z,77.04
2019-03-24T19:08:09.709Z,76.34
2019-03-24T19:10:39.214Z,76.13
2019-03-24T19:13:08.674Z,76.03
2019-03-24T19:15:38.139Z,75.68
2019-03-24T19:18:07.590Z,75.82
2019-03-24T19:20:37.431Z,76.27
2019-03-24T19:23:06.940Z,76.81
2019-03-24T19:25:36.501Z,77.17
2019-03-24T19:28:06.263Z,77.46
2019-03-24T19:30:37.641Z,77.68
2019-03-24T19:33:07.149Z,77.87
2019-03-24T19:35:36.778Z,78.34
2019-03-24T19:38:06.281Z,78.35
2019-03-24T19:40:35.995Z,78.26
2019-03-24T19:43:05.688Z,77.94
2019-03-24T19:45:36.901Z,77.53
2019-03-24T19:48:06.484Z,77.42
2019-03-24T19:50:36.028Z,77.30
2019-03-24T19:53:05.741Z,77.02
2019-03-24T19:55:35.248Z,76.98
2019-03-24T19:58:05.090Z,76.94
2019-03-24T20:00:34.554Z,76.77
2019-03-24T20:03:04.399Z,76.80
2019-03-24T20:05:33.921Z,76.21
2019-03-24T20:08:03.366Z,76.17
2019-03-24T20:10:32.843Z,75.33
2019-03-24T20:13:02.294Z,75.14
2019-03-24T20:15:31.850Z,75.18
2019-03-24T20:18:01.649Z,75.42
2019-03-24T20:20:31.137Z,75.82
2019-03-24T20:23:00.622Z,76.06
2019-03-24T20:25:30.091Z,76.26
2019-03-24T20:27:59.802Z,76.27
2019-03-24T20:30:29.272Z,76.81
2019-03-24T20:33:02.174Z,77.01
2019-03-24T20:35:34.670Z,76.80
2019-03-24T20:38:12.581Z,76.66
2019-03-24T20:40:52.670Z,76.42
2019-03-24T20:43:30.377Z,75.70
2019-03-24T20:46:20.186Z,75.88
2019-03-24T20:48:43.623Z,75.52
2019-03-24T20:51:18.378Z,75.97
2019-03-24T20:53:53.888Z,76.57
2019-03-24T20:56:30.293Z,77.27
2019-03-24T20:59:09.169Z,77.98
2019-03-24T21:01:40.460Z,78.39
2019-03-24T21:04:09.936Z,78.68
2019-03-24T21:06:39.392Z,79.23
2019-03-24T21:09:09.546Z,79.89
2019-03-24T21:11:39.027Z,80.44
2019-03-24T21:14:08.770Z,81.01
2019-03-24T21:16:38.507Z,81.05
2019-03-24T21:19:08.396Z,81.07
2019-03-24T21:21:37.868Z,80.79
2019-03-24T21:24:07.329Z,80.51
2019-03-24T21:26:36.826Z,80.49
2019-03-24T21:29:06.313Z,80.47
2019-03-24T21:31:35.754Z,80.81
2019-03-24T21:34:05.225Z,81.09
2019-03-24T21:36:35.258Z,81.51
2019-03-24T21:39:07.044Z,81.93
2019-03-24T21:41:36.686Z,82.35
2019-03-24T21:44:06.145Z,82.46
2019-03-24T21:46:35.618Z,81.71
2019-03-24T21:49:05.101Z,80.59
2019-03-24T21:51:34.599Z,79.53
2019-03-24T21:54:04.045Z,79.19
2019-03-24T21:56:33.591Z,78.61
2019-03-24T21:59:03.361Z,78.51
2019-03-24T22:01:33.005Z,78.29
2019-03-24T22:04:02.465Z,77.97
2019-03-24T22:06:31.965Z,77.33
2019-03-24T22:09:01.420Z,76.82
2019-03-24T22:11:31.182Z,76.30
2019-03-24T22:14:00.631Z,76.12
2019-03-24T22:16:30.432Z,76.56
2019-03-24T22:18:59.905Z,76.20
2019-03-24T22:21:29.370Z,75.81
2019-03-24T22:23:58.986Z,76.05
2019-03-24T22:26:28.450Z,75.81
2019-03-24T22:28:57.923Z,75.83
2019-03-24T22:31:27.404Z,76.08
2019-03-24T22:33:56.866Z,76.21
2019-03-24T22:36:26.333Z,76.45
2019-03-24T22:38:55.793Z,76.76
2019-03-24T22:41:25.340Z,77.42
2019-03-24T22:43:54.796Z,77.91
2019-03-24T22:46:24.269Z,78.65
2019-03-24T22:48:53.904Z,79.25
2019-03-24T22:51:23.384Z,79.91
2019-03-24T22:54:03.016Z,79.87
2019-03-24T22:56:24.042Z,80.70
2019-03-24T22:58:53.523Z,80.82
2019-03-24T23:01:23.277Z,81.03
2019-03-24T23:03:52.738Z,81.36
2019-03-24T23:06:22.202Z,81.61
2019-03-24T23:08:51.726Z,81.64
2019-03-24T23:11:21.220Z,82.05
2019-03-24T23:13:50.689Z,82.17
2019-03-24T23:16:20.208Z,82.17
2019-03-24T23:18:49.666Z,82.08
2019-03-24T23:21:19.136Z,82.08
2019-03-24T23:23:48.619Z,82.03
2019-03-24T23:26:18.105Z,81.90
2019-03-24T23:28:47.727Z,81.84
2019-03-24T23:31:17.459Z,81.92
2019-03-24T23:33:46.916Z,82.20
2019-03-24T23:36:16.387Z,82.03
2019-03-24T23:38:45.842Z,81.84
2019-03-24T23:41:15.316Z,81.80
2019-03-24T23:43:44.817Z,81.72
2019-03-24T23:46:14.277Z,81.68
2019-03-24T23:48:44.073Z,81.15
2019-03-24T23:51:13.558Z,81.05
2019-03-24T23:53:43.024Z,80.15
2019-03-24T23:56:12.521Z,79.66
2019-03-24T23:58:41.988Z,79.65
